Portada
METAR-TAF:

METAR-TAF

Aeroports :

Yüksekova, Turquia

latitud: 37-33-06N, longitud: 44-14-01E, altitud: 1950 m

Observació

L'informe es va fer fa 4 hores i 27 minuts, a les 14:50 UTC
Vent 5 kt del Sud-Est, variant entre Est i Sud
Temperatura 18°C
Humitat 32%
Pressió 1016 hPa
Visibilitat 10 km o més
Escasses núvols a una alçada de 4000 ft
Núvols disperses a una alçada de 8000 ft

METAR: LTCW 301450Z 13005KT 090V190 9999 FEW040 SCT080 18/01 Q1016

Hora: 22:17 (19:17 UTC)

Pronòstic

L'informe es va fer fa 2 hores i 37 minuts, a les 16:40 UTC
Pronòstic vàlid del 30 a les 18 UTC al 01 a les 03 UTC
Vent 7 kt del Sud-Oest
Visibilitat 10 km o més
Núvols disperses a una alçada de 4000 ft
Evolucionant progressivament
l' 30 a les 18 UTC al 30 a les 19 UTC
Visibilitat 10 km o més
sense núvols per sota de 1500 mi sense presència de cumulonimbus.

TAF: LTCW 301640Z 3018/0103 23007KT 9999 SCT040 BECMG 3018/3019 CAVOK

Observacions i pronòstics meteorològics de més de 4000 aeroports (METAR i TAF).

Les estacions disponibles són els punts grocs i vermells al mapa.

Posi el ratolí al punt desitjat per veure el nom de l'estació.

Feu clic per veure les observacions i els pronòstics meteorològics.

Per canviar el mapa: feu clic els botons verds amb una creu de color negre per apropar; al botó verd amb un guió per allunyar la imatge; o en les fletxes verdes per a mapes adjacents.


METAR-TAF: